Time;durP1;ratioP1;P1;durP2;ratioP2;P2;SDS_P1;SDS_P2;PMS_P1;PMS_P2;Temp;Humidity;BMP_temperature;BMP_pressure;BME280_temperature;BME280_humidity;BME280_pressure;Samples;Min_cycle;Max_cycle;Signal;HPM_P1;HPM_P2
2023/09/12 00:01:20;;;;;;;66.23;34.57;;;;;;;18.28;100.00;101060.28;7365913;19;20399;-51
2023/09/12 00:03:49;;;;;;;65.77;40.20;;;;;;;18.34;100.00;101055.16;7395474;19;20407;-54
2023/09/12 00:06:19;;;;;;;65.03;35.63;;;;;;;18.26;100.00;101054.16;7370235;19;20795;-51
2023/09/12 00:08:51;;;;;;;47.53;30.33;;;;;;;18.22;100.00;101045.41;7395453;19;20411;-56
2023/09/12 00:11:25;;;;;;;74.03;42.33;;;;;;;18.32;100.00;101030.75;7369695;19;20783;-55
2023/09/12 00:13:56;;;;;;;75.90;41.67;;;;;;;18.32;100.00;101025.53;7395573;19;20399;-52
2023/09/12 00:16:25;;;;;;;72.43;41.80;;;;;;;18.24;100.00;101021.94;7370217;19;20467;-53
2023/09/12 00:18:55;;;;;;;79.97;43.90;;;;;;;18.26;100.00;101015.91;7395396;19;20426;-54
2023/09/12 00:21:25;;;;;;;93.10;49.60;;;;;;;18.36;100.00;101001.22;7370362;19;20475;-54
2023/09/12 00:23:57;;;;;;;74.77;43.40;;;;;;;18.33;100.00;100998.56;7394468;19;20415;-56
2023/09/12 00:26:26;;;;;;;96.50;45.07;;;;;;;18.34;100.00;100995.09;7369610;19;20419;-53
2023/09/12 00:28:56;;;;;;;77.83;44.53;;;;;;;18.33;100.00;100988.09;7395307;19;20408;-52
2023/09/12 00:31:26;;;;;;;76.97;44.67;;;;;;;18.34;100.00;100987.25;7369182;19;20534;-56
2023/09/12 00:33:55;;;;;;;85.93;45.47;;;;;;;18.36;100.00;100985.56;7396260;19;20400;-52
2023/09/12 00:36:25;;;;;;;83.03;47.97;;;;;;;18.30;100.00;100983.72;7369771;19;20419;-54
2023/09/12 00:38:57;;;;;;;86.03;45.83;;;;;;;18.33;100.00;100980.28;7396834;19;20423;-51
2023/09/12 00:41:27;;;;;;;89.57;45.03;;;;;;;18.28;100.00;100988.06;7368848;19;20435;-55
2023/09/12 00:43:58;;;;;;;71.53;42.00;;;;;;;18.35;100.00;100981.16;7393973;19;20404;-51
2023/09/12 00:46:28;;;;;;;78.33;42.37;;;;;;;18.34;100.00;100976.81;7367108;19;20427;-57
2023/09/12 00:48:59;;;;;;;81.93;45.37;;;;;;;18.34;100.00;100966.34;7393460;19;21069;-53
2023/09/12 00:51:30;;;;;;;78.70;42.87;;;;;;;18.28;100.00;100966.28;7362896;19;20435;-52
2023/09/12 00:54:02;;;;;;;79.90;39.87;;;;;;;18.21;100.00;100968.81;7391729;19;20775;-56
2023/09/12 00:56:32;;;;;;;73.70;39.60;;;;;;;18.12;100.00;100973.91;7364494;19;20430;-54
2023/09/12 00:59:02;;;;;;;76.00;39.67;;;;;;;18.10;100.00;100970.38;7392109;19;20411;-52
2023/09/12 01:01:34;;;;;;;68.37;38.33;;;;;;;18.12;100.00;100965.19;7361231;19;20515;-54
2023/09/12 01:04:04;;;;;;;74.57;37.30;;;;;;;18.11;100.00;100964.34;7392232;19;20411;-53
2023/09/12 01:06:37;;;;;;;67.63;36.57;;;;;;;18.03;100.00;100955.47;7365101;19;20430;-52
2023/09/12 01:09:09;;;;;;;64.67;36.50;;;;;;;18.07;100.00;100957.31;7393911;19;20423;-53
2023/09/12 01:11:39;;;;;;;60.87;36.07;;;;;;;18.11;100.00;100953.88;7365114;19;20439;-51
2023/09/12 01:14:09;;;;;;;62.70;33.83;;;;;;;18.07;100.00;100941.63;7392009;19;20492;-53
2023/09/12 01:16:38;;;;;;;57.87;33.60;;;;;;;18.04;100.00;100942.44;7366075;19;20431;-54
2023/09/12 01:19:09;;;;;;;60.77;32.80;;;;;;;17.98;100.00;100944.06;7387384;19;20411;-54
2023/09/12 01:22:00;;;;;;;62.93;35.50;;;;;;;17.99;100.00;100938.03;7366846;19;20832;-57
2023/09/12 01:24:55;;;;;;;57.17;33.40;;;;;;;18.05;100.00;100933.78;7395253;19;20415;-57
2023/09/12 01:27:29;;;;;;;60.53;34.40;;;;;;;18.07;100.00;100915.53;7369048;19;20510;-51
2023/09/12 01:30:00;;;;;;;57.37;32.27;;;;;;;18.19;100.00;100909.59;7395906;19;20435;-52
2023/09/12 01:32:32;;;;;;;56.10;31.00;;;;;;;18.12;100.00;100908.66;7368085;19;20511;-57
2023/09/12 01:35:03;;;;;;;54.73;31.73;;;;;;;18.08;100.00;100912.94;7394932;19;20412;-55
2023/09/12 01:37:33;;;;;;;50.20;29.60;;;;;;;18.16;100.00;100905.19;7371069;19;20443;-53
2023/09/12 01:40:03;;;;;;;66.50;33.97;;;;;;;18.12;100.00;100903.41;7395132;19;20429;-57
2023/09/12 01:42:39;;;;;;;56.07;30.93;;;;;;;18.12;100.00;100897.31;7370594;19;20439;-56
2023/09/12 01:45:12;;;;;;;51.93;29.93;;;;;;;18.20;100.00;100891.34;7369873;19;20427;-53
2023/09/12 01:47:43;;;;;;;48.77;29.10;;;;;;;18.14;100.00;100893.88;7390852;19;20959;-57
2023/09/12 01:50:13;;;;;;;52.23;30.07;;;;;;;18.13;100.00;100881.69;7369490;19;20807;-52
2023/09/12 01:52:41;;;;;;;53.27;30.07;;;;;;;18.20;100.00;100880.88;7392877;19;20479;-55
2023/09/12 01:55:11;;;;;;;59.67;31.90;;;;;;;18.14;100.00;100887.78;7369473;19;20428;-56
2023/09/12 01:57:44;;;;;;;47.53;30.23;;;;;;;18.19;100.00;100901.75;7394368;19;21266;-55
2023/09/12 02:00:15;;;;;;;52.97;29.90;;;;;;;17.99;100.00;100927.59;7367678;19;20419;-56
2023/09/12 02:02:45;;;;;;;43.77;26.63;;;;;;;17.82;100.00;100951.69;7390656;19;20815;-56
2023/09/12 02:05:18;;;;;;;47.07;27.17;;;;;;;17.83;100.00;100950.84;7368944;19;20411;-54
2023/09/12 02:07:48;;;;;;;55.33;30.97;;;;;;;17.94;100.00;100957.09;7391398;19;20494;-55
2023/09/12 02:10:18;;;;;;;56.53;30.80;;;;;;;17.95;100.00;100958.84;7368672;19;20450;-53
2023/09/12 02:12:51;;;;;;;56.53;30.83;;;;;;;17.93;100.00;100944.91;7390669;19;20471;-55
2023/09/12 02:15:20;;;;;;;62.30;31.77;;;;;;;17.91;100.00;100967.50;7369665;19;20798;-50
2023/09/12 02:17:51;;;;;;;51.63;30.70;;;;;;;17.83;100.00;100968.25;7392436;19;20410;-50
2023/09/12 02:20:21;;;;;;;59.50;33.37;;;;;;;17.91;100.00;100969.22;7368548;19;20427;-53
2023/09/12 02:22:51;;;;;;;52.10;29.53;;;;;;;17.82;100.00;100972.56;7392319;19;20407;-54
2023/09/12 02:25:20;;;;;;;47.37;28.53;;;;;;;17.83;100.00;100955.19;7368416;19;20400;-50
2023/09/12 02:27:53;;;;;;;55.13;30.83;;;;;;;17.85;100.00;100943.03;7391187;19;20831;-51
2023/09/12 02:30:22;;;;;;;48.83;28.93;;;;;;;17.74;100.00;100959.41;7367838;19;20443;-56
2023/09/12 02:32:52;;;;;;;53.53;31.10;;;;;;;17.71;100.00;100964.59;7392349;19;20400;-55
2023/09/12 02:35:22;;;;;;;51.77;30.23;;;;;;;17.68;100.00;100969.75;7369984;19;20399;-52
2023/09/12 02:37:51;;;;;;;48.80;30.30;;;;;;;17.72;100.00;100965.44;7392476;19;20416;-52
2023/09/12 02:40:21;;;;;;;54.43;31.10;;;;;;;17.67;100.00;100975.81;7369166;19;20442;-53
2023/09/12 02:42:53;;;;;;;47.63;28.30;;;;;;;17.70;100.00;100975.00;7389727;19;20938;-50
2023/09/12 02:45:23;;;;;;;51.43;30.33;;;;;;;17.79;100.00;100970.78;7368200;19;20431;-53
2023/09/12 02:47:52;;;;;;;52.30;30.80;;;;;;;17.83;100.00;100971.72;7392500;19;20420;-54
2023/09/12 02:50:22;;;;;;;57.23;31.50;;;;;;;17.79;100.00;100978.63;7369118;19;21016;-55
2023/09/12 02:52:52;;;;;;;52.67;31.13;;;;;;;17.76;100.00;100973.38;7389495;19;20826;-51
2023/09/12 02:55:21;;;;;;;56.40;30.67;;;;;;;17.74;100.00;100975.06;7369157;19;20613;-56
2023/09/12 02:57:53;;;;;;;54.87;29.23;;;;;;;17.73;100.00;100982.88;7389990;19;20414;-53
2023/09/12 03:00:23;;;;;;;53.30;30.07;;;;;;;17.71;100.00;100988.06;7367340;19;20442;-54
2023/09/12 03:02:53;;;;;;;51.93;28.97;;;;;;;17.70;100.00;100998.47;7391373;19;20399;-56
2023/09/12 03:05:22;;;;;;;52.87;29.60;;;;;;;17.67;100.00;101004.50;7369797;19;20498;-53
2023/09/12 03:07:52;;;;;;;54.23;29.63;;;;;;;17.67;100.00;101005.41;7389910;19;20938;-56
2023/09/12 03:10:21;;;;;;;57.57;30.20;;;;;;;17.68;100.00;101012.38;7366925;19;20453;-51
2023/09/12 03:12:54;;;;;;;49.30;28.43;;;;;;;17.69;100.00;101013.22;7391658;19;21173;-50
2023/09/12 03:15:23;;;;;;;52.80;31.30;;;;;;;17.70;100.00;101008.91;7368569;19;20457;-53
2023/09/12 03:17:53;;;;;;;104.83;52.77;;;;;;;17.83;100.00;101005.63;7399241;19;20449;-53
2023/09/12 03:20:23;;;;;;;58.60;29.53;;;;;;;17.74;100.00;101018.56;7373912;19;20449;-52
2023/09/12 03:22:52;;;;;;;60.13;29.60;;;;;;;17.73;100.00;101009.84;7398166;19;20399;-54
2023/09/12 03:25:22;;;;;;;53.23;30.87;;;;;;;17.82;100.00;101006.50;7375546;19;20948;-53
2023/09/12 03:27:54;;;;;;;73.30;37.00;;;;;;;17.84;100.00;100999.56;7398555;19;20431;-52
2023/09/12 03:30:24;;;;;;;59.80;34.40;;;;;;;17.88;100.00;100996.16;7375264;19;20990;-57
2023/09/12 03:32:54;;;;;;;62.80;32.90;;;;;;;17.80;100.00;100997.78;7398315;19;20406;-52
2023/09/12 03:35:24;;;;;;;55.53;31.10;;;;;;;17.76;100.00;100989.03;7372639;19;20407;-57
2023/09/12 03:37:53;;;;;;;53.00;31.90;;;;;;;17.74;100.00;100990.72;7398979;19;20394;-55
2023/09/12 03:40:23;;;;;;;61.83;31.47;;;;;;;17.85;100.00;100993.50;7372513;19;20971;-54
2023/09/12 03:42:55;;;;;;;58.87;33.00;;;;;;;17.84;100.00;100981.28;7397441;19;20421;-56
2023/09/12 03:45:25;;;;;;;66.63;33.70;;;;;;;17.85;100.00;100977.84;7374645;19;20419;-54
2023/09/12 03:47:54;;;;;;;68.80;36.00;;;;;;;17.84;100.00;100981.28;7397953;19;20403;-52
2023/09/12 03:50:24;;;;;;;59.80;33.10;;;;;;;17.73;100.00;100988.97;7374683;19;20446;-54
2023/09/12 03:52:54;;;;;;;57.47;30.90;;;;;;;17.91;100.00;100982.28;7397444;19;20487;-56
2023/09/12 03:55:23;;;;;;;59.67;31.80;;;;;;;17.95;100.00;100979.72;7374432;19;20442;-53
2023/09/12 03:57:56;;;;;;;72.80;35.00;;;;;;;17.92;100.00;100974.47;7395152;19;20483;-52
2023/09/12 04:00:25;;;;;;;75.50;35.53;;;;;;;17.75;100.00;100996.81;7369667;19;21537;-52
2023/09/12 04:02:55;;;;;;;68.93;35.00;;;;;;;17.69;100.00;100997.56;7396968;19;20411;-54
2023/09/12 04:05:25;;;;;;;62.33;36.73;;;;;;;17.64;100.00;101001.88;7372256;19;20415;-55
2023/09/12 04:07:54;;;;;;;67.20;36.80;;;;;;;17.65;100.00;101001.00;7395273;19;20418;-53
2023/09/12 04:10:24;;;;;;;76.63;36.90;;;;;;;17.63;100.00;100985.31;7371834;19;20440;-52
2023/09/12 04:12:57;;;;;;;63.20;35.50;;;;;;;17.64;100.00;100989.69;7396711;19;20392;-56
2023/09/12 04:15:26;;;;;;;83.97;37.90;;;;;;;17.64;100.00;100974.03;7370637;19;20385;-52
2023/09/12 04:17:56;;;;;;;77.73;37.13;;;;;;;17.70;100.00;100967.16;7395182;19;20774;-53
2023/09/12 04:20:26;;;;;;;75.17;37.33;;;;;;;17.62;100.00;100965.31;7374073;19;20388;-56
2023/09/12 04:22:55;;;;;;;74.87;36.30;;;;;;;17.70;100.00;100951.50;7396771;19;20416;-53
2023/09/12 04:25:26;;;;;;;74.10;37.50;;;;;;;17.66;100.00;100955.81;7371701;19;20839;-55
2023/09/12 04:27:58;;;;;;;81.10;36.57;;;;;;;17.74;100.00;100956.78;7391692;19;20970;-52
2023/09/12 04:30:28;;;;;;;73.87;38.13;;;;;;;17.73;100.00;100951.56;7371630;19;20502;-53
2023/09/12 04:32:58;;;;;;;82.10;37.77;;;;;;;17.70;100.00;100943.69;7396574;19;20422;-53
2023/09/12 04:35:28;;;;;;;91.40;40.30;;;;;;;17.67;100.00;100937.56;7372069;19;20395;-55
2023/09/12 04:37:57;;;;;;;92.67;37.37;;;;;;;17.62;100.00;100947.06;7395420;19;20403;-51
2023/09/12 04:40:27;;;;;;;95.60;43.17;;;;;;;17.52;100.00;100956.47;7370246;19;20937;-53
2023/09/12 04:42:59;;;;;;;87.87;41.13;;;;;;;17.49;100.00;100958.16;7395551;19;20467;-52
2023/09/12 04:45:28;;;;;;;87.37;41.13;;;;;;;17.58;100.00;100953.06;7372759;19;20412;-59
2023/09/12 04:47:58;;;;;;;90.17;43.13;;;;;;;17.59;100.00;100943.53;7392034;19;20408;-54
2023/09/12 04:50:28;;;;;;;97.40;45.87;;;;;;;17.58;100.00;100929.59;7368314;19;20421;-53
2023/09/12 04:52:57;;;;;;;90.83;41.70;;;;;;;17.58;100.00;100926.13;7396107;19;20414;-52
2023/09/12 04:55:28;;;;;;;95.40;44.53;;;;;;;17.52;100.00;100926.88;7373155;19;20401;-54
2023/09/12 04:58:00;;;;;;;93.03;46.50;;;;;;;17.49;100.00;100932.94;7395058;19;20415;-56
2023/09/12 05:00:30;;;;;;;86.80;43.30;;;;;;;17.51;100.00;100915.59;7367383;19;20510;-57
2023/09/12 05:02:59;;;;;;;90.03;44.30;;;;;;;17.48;100.00;100922.50;7392350;19;20470;-55
2023/09/12 05:05:29;;;;;;;107.93;47.20;;;;;;;17.50;100.00;100908.63;7369085;19;20419;-50
2023/09/12 05:07:58;;;;;;;88.60;41.80;;;;;;;17.56;100.00;100892.19;7393419;19;20414;-51
2023/09/12 05:10:28;;;;;;;92.60;43.57;;;;;;;17.51;100.00;100889.50;7370070;19;20797;-55
2023/09/12 05:13:00;;;;;;;95.07;45.30;;;;;;;17.50;100.00;100899.91;7392671;19;20498;-49
2023/09/12 05:15:30;;;;;;;102.17;47.77;;;;;;;17.50;100.00;100897.31;7370223;19;20428;-50
2023/09/12 05:18:00;;;;;;;99.60;45.53;;;;;;;17.52;100.00;100900.81;7394475;19;20475;-45
2023/09/12 05:20:29;;;;;;;112.20;49.90;;;;;;;17.53;100.00;100897.34;7369249;19;20499;-48
2023/09/12 05:22:59;;;;;;;101.87;46.20;;;;;;;17.55;100.00;100898.25;7391510;19;20456;-47
2023/09/12 05:25:29;;;;;;;105.33;48.50;;;;;;;17.57;100.00;100882.63;7368872;19;21013;-46
2023/09/12 05:28:02;;;;;;;107.37;48.80;;;;;;;17.63;100.00;100878.38;7392939;19;20482;-46
2023/09/12 05:30:32;;;;;;;111.20;48.50;;;;;;;17.68;100.00;100875.81;7370248;19;20861;-49
2023/09/12 05:33:02;;;;;;;110.57;49.97;;;;;;;17.57;100.00;100873.06;7393585;19;20540;-47
2023/09/12 05:35:31;;;;;;;116.63;49.27;;;;;;;17.58;100.00;100885.25;7367321;19;20537;-46
2023/09/12 05:38:01;;;;;;;119.40;50.80;;;;;;;17.52;100.00;100899.09;7391914;19;20436;-51
2023/09/12 05:40:31;;;;;;;110.20;49.67;;;;;;;17.51;100.00;100912.97;7370523;19;20450;-46
2023/09/12 05:43:03;;;;;;;110.20;48.43;;;;;;;17.50;100.00;100908.63;7391610;19;20419;-52
2023/09/12 05:45:33;;;;;;;112.73;48.70;;;;;;;17.68;100.00;100902.78;7365931;19;20879;-49
2023/09/12 05:48:03;;;;;;;113.70;50.40;;;;;;;17.58;100.00;100916.53;7393023;19;20400;-50
2023/09/12 05:50:32;;;;;;;96.97;47.07;;;;;;;17.52;100.00;100906.00;7369123;19;20452;-47
2023/09/12 05:53:02;;;;;;;114.83;47.53;;;;;;;17.52;100.00;100906.00;7392190;19;21014;-48
2023/09/12 05:55:32;;;;;;;139.27;48.90;;;;;;;17.66;100.00;100901.91;7368304;19;20857;-46
2023/09/12 05:58:05;;;;;;;121.00;50.90;;;;;;;17.76;100.00;100895.09;7391856;19;20960;-49
2023/09/12 06:00:35;;;;;;;125.20;51.37;;;;;;;17.70;100.00;100887.19;7365120;19;20433;-48
2023/09/12 06:03:05;;;;;;;125.63;51.80;;;;;;;17.60;100.00;100894.00;7391255;19;20447;-45
2023/09/12 06:05:35;;;;;;;122.10;49.43;;;;;;;17.67;100.00;100880.19;7367129;19;20415;-52
2023/09/12 06:08:06;;;;;;;128.77;50.30;;;;;;;17.68;100.00;100887.16;7393073;19;20408;-47
2023/09/12 06:10:39;;;;;;;122.07;49.40;;;;;;;17.62;100.00;100884.44;7366371;19;20763;-47
2023/09/12 06:13:11;;;;;;;136.20;51.80;;;;;;;17.64;100.00;100885.34;7392649;19;20472;-49
2023/09/12 06:15:41;;;;;;;111.77;47.83;;;;;;;17.71;100.00;100880.22;7365403;19;20431;-46
2023/09/12 06:18:11;;;;;;;110.13;48.57;;;;;;;17.76;100.00;100870.72;7392586;19;20423;-47
2023/09/12 06:20:42;;;;;;;110.03;48.33;;;;;;;17.77;100.00;100869.84;7366831;19;20491;-48
2023/09/12 06:23:12;;;;;;;159.93;66.37;;;;;;;17.78;100.00;100861.16;7391101;19;20812;-47
2023/09/12 06:25:45;;;;;;;124.63;51.27;;;;;;;17.77;100.00;100865.53;7366112;19;21385;-45
2023/09/12 06:28:27;;;;;;;125.10;52.37;;;;;;;17.80;100.00;100864.69;7392727;19;20432;-50
2023/09/12 06:30:57;;;;;;;142.50;62.13;;;;;;;17.80;100.00;100869.91;7366332;19;20446;-49
2023/09/12 06:33:28;;;;;;;113.33;48.70;;;;;;;17.86;100.00;100875.22;7391090;19;20460;-47
2023/09/12 06:35:58;;;;;;;111.37;49.23;;;;;;;17.83;100.00;100880.38;7365188;19;20423;-50
2023/09/12 06:38:27;;;;;;;118.70;51.97;;;;;;;17.86;100.00;100883.03;7391645;19;20404;-48
2023/09/12 06:40:57;;;;;;;97.33;48.50;;;;;;;17.88;100.00;100893.47;7365699;19;20441;-52
2023/09/12 06:43:30;;;;;;;116.50;47.67;;;;;;;17.92;100.00;100893.56;7390722;19;20463;-48
2023/09/12 06:46:00;;;;;;;100.73;45.90;;;;;;;17.95;100.00;100900.56;7365887;19;20426;-47
2023/09/12 06:48:30;;;;;;;109.33;47.30;;;;;;;17.93;100.00;100897.94;7393772;19;20414;-45
2023/09/12 06:50:59;;;;;;;115.40;49.50;;;;;;;17.88;100.00;100902.19;7369494;19;20446;-47
2023/09/12 06:53:33;;;;;;;117.93;51.90;;;;;;;17.87;100.00;100908.28;7395754;19;21009;-47
2023/09/12 06:56:03;;;;;;;100.97;45.83;;;;;;;17.88;100.00;100910.03;7374395;19;20912;-53
2023/09/12 06:58:36;;;;;;;95.60;44.97;;;;;;;17.94;100.00;100904.91;7396104;19;20959;-46
2023/09/12 07:01:06;;;;;;;99.47;45.67;;;;;;;17.99;100.00;100922.38;7373398;19;20459;-49
2023/09/12 07:03:37;;;;;;;113.27;48.40;;;;;;;17.94;100.00;100922.28;7396702;19;20449;-49
2023/09/12 07:06:08;;;;;;;102.80;47.83;;;;;;;17.91;100.00;100928.34;7373312;19;20419;-45
2023/09/12 07:08:38;;;;;;;106.07;45.70;;;;;;;17.97;100.00;100932.78;7395884;19;20409;-50
2023/09/12 07:11:08;;;;;;;100.57;45.70;;;;;;;17.96;100.00;100925.81;7371266;19;20423;-52
2023/09/12 07:13:40;;;;;;;87.60;43.97;;;;;;;18.01;100.00;100925.84;7394807;19;20447;-49
2023/09/12 07:16:13;;;;;;;89.27;45.07;;;;;;;18.07;100.00;100926.88;7372121;19;20809;-51
2023/09/12 07:18:43;;;;;;;105.10;46.70;;;;;;;18.07;100.00;100923.38;7396776;19;20419;-48
2023/09/12 07:21:13;;;;;;;101.00;45.30;;;;;;;18.12;100.00;100921.69;7374012;19;20415;-49
2023/09/12 07:23:45;;;;;;;98.47;43.60;;;;;;;18.17;100.00;100921.75;7395721;19;20789;-46
2023/09/12 07:26:16;;;;;;;89.00;42.87;;;;;;;18.13;100.00;100919.94;7371975;19;20897;-48
2023/09/12 07:28:48;;;;;;;90.97;42.70;;;;;;;18.07;100.00;100929.47;7396472;19;20408;-47
2023/09/12 07:31:18;;;;;;;89.67;42.70;;;;;;;18.02;100.00;100933.72;7372729;19;20464;-48
2023/09/12 07:33:47;;;;;;;87.40;42.10;;;;;;;18.02;100.00;100946.78;7396208;19;20459;-47
2023/09/12 07:36:17;;;;;;;98.13;42.30;;;;;;;18.06;100.00;100953.81;7369475;19;20950;-47
2023/09/12 07:38:47;;;;;;;84.80;39.33;;;;;;;18.11;100.00;100963.44;7396124;19;20415;-47
2023/09/12 07:41:16;;;;;;;84.50;39.50;;;;;;;18.12;100.00;100967.81;7371596;19;20435;-50
2023/09/12 07:43:48;;;;;;;86.53;43.23;;;;;;;18.15;100.00;100971.31;7394719;19;20451;-50
2023/09/12 07:46:18;;;;;;;83.40;38.70;;;;;;;18.21;100.00;100976.63;7372456;19;20849;-50
2023/09/12 07:48:48;;;;;;;78.97;38.43;;;;;;;18.35;100.00;100981.16;7395341;19;20436;-46
2023/09/12 07:51:18;;;;;;;90.40;41.50;;;;;;;18.48;100.00;100980.50;7373087;19;20840;-47
2023/09/12 07:53:48;;;;;;;128.90;60.33;;;;;;;18.44;100.00;100981.28;7394750;19;20451;-50
2023/09/12 07:56:17;;;;;;;99.43;43.00;;;;;;;18.43;100.00;100984.78;7371861;19;20514;-50
2023/09/12 07:58:51;;;;;;;86.63;42.57;;;;;;;18.48;100.00;101009.22;7397013;19;20421;-51
2023/09/12 08:01:20;;;;;;;76.73;40.23;;;;;;;18.44;100.00;101028.31;7370492;19;20419;-53
2023/09/12 08:03:50;;;;;;;77.90;38.87;;;;;;;18.37;100.00;101029.09;7395393;19;20435;-56
2023/09/12 08:06:21;;;;;;;76.93;37.80;;;;;;;18.26;100.00;101035.88;7372378;19;20479;-53
2023/09/12 08:08:51;;;;;;;67.50;35.27;;;;;;;18.34;100.00;101044.69;7395972;19;20757;-56
2023/09/12 08:11:23;;;;;;;63.63;35.50;;;;;;;18.36;100.00;101048.22;7373952;19;20767;-60
2023/09/12 08:13:55;;;;;;;72.50;36.47;;;;;;;18.37;100.00;101068.28;7395163;19;20446;-51
2023/09/12 08:16:26;;;;;;;77.93;37.03;;;;;;;18.37;100.00;101068.28;7369275;19;20442;-53
2023/09/12 08:18:56;;;;;;;64.00;33.70;;;;;;;18.38;100.00;101079.56;7392811;19;21266;-55
2023/09/12 08:21:29;;;;;;;63.30;34.50;;;;;;;18.48;100.00;101095.44;7370417;19;21352;-51
2023/09/12 08:23:58;;;;;;;68.80;35.87;;;;;;;18.57;100.00;101109.47;7391858;19;20463;-56
2023/09/12 08:26:28;;;;;;;66.53;34.73;;;;;;;18.68;100.00;101113.13;7367745;19;20485;-50
2023/09/12 08:29:03;;;;;;;65.67;37.00;;;;;;;18.81;100.00;101115.91;7392622;19;20404;-57
2023/09/12 08:31:33;;;;;;;65.60;35.20;;;;;;;18.89;100.00;101122.09;7368299;19;20909;-49
2023/09/12 08:34:03;;;;;;;66.57;34.37;;;;;;;18.88;100.00;101122.97;7393493;19;20503;-57
2023/09/12 08:36:32;;;;;;;56.13;31.80;;;;;;;18.80;100.00;101121.97;7369199;19;20430;-50
2023/09/12 08:39:03;;;;;;;60.73;33.43;;;;;;;18.84;100.00;101124.66;7392557;19;20428;-50
2023/09/12 08:41:33;;;;;;;53.87;30.67;;;;;;;18.92;100.00;101126.50;7369218;19;20427;-54
2023/09/12 08:44:07;;;;;;;57.80;33.20;;;;;;;18.98;100.00;101132.66;7392105;19;20482;-53
2023/09/12 08:46:37;;;;;;;53.40;30.67;;;;;;;19.06;100.00;101137.16;7366744;19;20522;-50
2023/09/12 08:49:09;;;;;;;58.40;30.63;;;;;;;18.98;100.00;101137.88;7393393;19;20408;-56
2023/09/12 08:51:39;;;;;;;51.70;28.57;;;;;;;19.07;100.00;101138.91;7367214;19;20427;-57
2023/09/12 08:54:10;;;;;;;45.73;26.27;;;;;;;19.17;100.00;101164.28;7392846;19;20457;-55
2023/09/12 08:56:42;;;;;;;45.30;26.80;;;;;;;19.28;100.00;101191.47;7367067;19;20453;-51
2023/09/12 08:59:15;;;;;;;45.27;27.13;;;;;;;19.36;100.00;101209.88;7392508;19;20403;-48
2023/09/12 09:01:46;;;;;;;44.83;26.83;;;;;;;19.63;100.00;101218.06;7366725;19;20423;-50
2023/09/12 09:04:16;;;;;;;41.40;25.17;;;;;;;19.67;100.00;101228.56;7392757;19;20439;-52
2023/09/12 09:06:45;;;;;;;40.27;25.60;;;;;;;19.69;100.00;101241.69;7368891;19;20450;-50
2023/09/12 09:09:16;;;;;;;43.63;25.13;;;;;;;19.69;100.00;101262.63;7393125;19;20410;-48
2023/09/12 09:11:45;;;;;;;39.80;23.17;;;;;;;19.69;100.00;101278.31;7368873;19;20459;-54
2023/09/12 09:14:18;;;;;;;40.60;22.77;;;;;;;19.78;100.00;101281.03;7392083;19;20456;-47
2023/09/12 09:16:47;;;;;;;37.87;24.90;;;;;;;19.80;100.00;101289.78;7369298;19;20433;-48
2023/09/12 09:19:18;;;;;;;36.67;23.97;;;;;;;19.83;100.00;101294.19;7393891;19;20411;-47
2023/09/12 09:21:48;;;;;;;38.33;25.30;;;;;;;19.82;100.00;101301.16;7369522;19;20452;-47
2023/09/12 09:24:21;;;;;;;34.90;21.00;;;;;;;19.89;100.00;101311.72;7392804;19;20464;-47
2023/09/12 09:26:58;;;;;;;32.93;20.77;;;;;;;19.98;100.00;101301.38;7367317;19;20426;-50
2023/09/12 09:29:33;;;;;;;35.63;22.10;;;;;;;20.10;100.00;101309.34;7392530;19;20425;-52
2023/09/12 09:32:05;;;;;;;41.03;25.27;;;;;;;20.29;100.00;101314.78;7364607;19;20459;-48
2023/09/12 09:34:34;;;;;;;36.87;22.03;;;;;;;20.39;100.00;101325.38;7392024;19;21036;-53
2023/09/12 09:37:05;;;;;;;37.67;22.50;;;;;;;20.31;100.00;101330.53;7368653;19;20427;-49
2023/09/12 09:39:35;;;;;;;34.33;21.47;;;;;;;20.34;100.00;101320.97;7392273;19;20958;-49
2023/09/12 09:42:05;;;;;;;35.47;21.53;;;;;;;20.48;100.00;101322.84;7368487;19;20431;-49
2023/09/12 09:44:38;;;;;;;32.03;21.13;;;;;;;20.56;100.00;101331.66;7393047;19;20530;-52
2023/09/12 09:47:08;;;;;;;31.97;21.30;;;;;;;20.67;100.00;101343.97;7369366;19;20447;-54
2023/09/12 09:49:38;;;;;;;37.53;25.00;;;;;;;21.01;100.00;101333.78;7392703;19;20412;-48
2023/09/12 09:52:08;;;;;;;37.93;25.20;;;;;;;21.06;100.00;101329.47;7367801;19;20502;-50
2023/09/12 09:54:38;;;;;;;29.73;17.70;;;;;;;20.82;100.00;101338.84;7392483;19;20483;-50
2023/09/12 09:57:07;;;;;;;27.80;19.10;;;;;;;20.83;100.00;101342.38;7368598;19;20530;-49
2023/09/12 09:59:39;;;;;;;25.23;17.70;;;;;;;20.66;100.00;101352.72;7392198;19;20478;-50
2023/09/12 10:02:18;;;;;;;29.47;19.00;;;;;;;20.70;100.00;101352.75;7368169;19;20483;-51
2023/09/12 10:04:48;;;;;;;27.33;18.40;;;;;;;20.77;100.00;101357.19;7393226;19;20419;-50
2023/09/12 10:07:30;;;;;;;30.13;18.77;;;;;;;20.79;100.00;101359.81;7368792;19;20462;-52
2023/09/12 10:10:00;;;;;;;28.10;16.50;;;;;;;20.68;100.00;101369.31;7393148;19;20771;-49
2023/09/12 10:12:31;;;;;;;22.73;15.53;;;;;;;20.56;100.00;101373.56;7368309;19;20526;-51
2023/09/12 10:15:04;;;;;;;24.83;17.10;;;;;;;20.45;100.00;101383.09;7393174;19;20525;-51
2023/09/12 10:17:37;;;;;;;27.00;16.00;;;;;;;20.43;100.00;101383.06;7370209;19;20798;-54
2023/09/12 10:20:11;;;;;;;28.50;17.87;;;;;;;20.42;100.00;101373.47;7385246;19;20413;-48
2023/09/12 10:22:43;;;;;;;28.83;18.27;;;;;;;20.34;100.00;101370.75;7390390;19;20419;-51
2023/09/12 10:25:14;;;;;;;29.90;18.00;;;;;;;20.33;100.00;101370.72;7370019;19;21216;-49
2023/09/12 10:27:44;;;;;;;28.57;17.47;;;;;;;20.33;100.00;101379.47;7396258;19;20482;-50
2023/09/12 10:30:18;;;;;;;23.20;15.87;;;;;;;20.33;100.00;101376.84;7375110;19;20471;-54
2023/09/12 10:32:48;;;;;;;27.23;18.50;;;;;;;20.31;100.00;101375.94;7396826;19;20426;-50
2023/09/12 10:35:19;;;;;;;30.00;19.00;;;;;;;20.36;100.00;101355.91;7374271;19;20939;-49
2023/09/12 10:37:51;;;;;;;30.97;19.23;;;;;;;20.36;100.00;101358.53;7397532;19;20430;-50
2023/09/12 10:40:22;;;;;;;31.87;18.60;;;;;;;20.33;100.00;101344.53;7374821;19;20482;-50
2023/09/12 10:42:52;;;;;;;25.70;17.97;;;;;;;20.31;100.00;101347.13;7398911;19;20442;-48
2023/09/12 10:45:24;;;;;;;23.57;16.97;;;;;;;20.42;100.00;101349.88;7375176;19;20887;-49
2023/09/12 10:47:54;;;;;;;30.17;19.60;;;;;;;20.41;100.00;101348.09;7397168;19;20399;-48
2023/09/12 10:50:24;;;;;;;30.27;18.40;;;;;;;20.47;100.00;101347.28;7374168;19;20411;-49
2023/09/12 10:52:54;;;;;;;26.23;17.90;;;;;;;20.41;100.00;101355.09;7396902;19;20432;-52
2023/09/12 10:55:23;;;;;;;26.40;17.97;;;;;;;20.39;100.00;101354.22;7374783;19;20418;-50
2023/09/12 10:58:05;;;;;;;25.90;15.90;;;;;;;20.36;100.00;101355.06;7397632;19;20407;-49
2023/09/12 11:00:38;;;;;;;33.53;19.60;;;;;;;20.26;100.00;101359.31;7375712;19;20426;-47
2023/09/12 11:03:39;;;;;;;28.40;17.70;;;;;;;20.22;100.00;101353.16;7396701;19;20467;-49
2023/09/12 11:06:22;;;;;;;26.43;16.80;;;;;;;20.21;100.00;101354.00;7376055;19;20486;-50
2023/09/12 11:09:20;;;;;;;30.50;16.90;;;;;;;20.16;100.00;101355.72;7397769;19;20427;-48
2023/09/12 11:11:50;;;;;;;25.50;17.13;;;;;;;20.15;100.00;101350.44;7374307;19;20451;-47
2023/09/12 11:14:20;;;;;;;30.37;17.83;;;;;;;20.16;100.00;101344.34;7397712;19;20446;-48
2023/09/12 11:17:19;;;;;;;21.70;15.20;;;;;;;20.17;100.00;101346.09;7374356;19;20463;-51